Time;durP1;ratioP1;P1;durP2;ratioP2;P2;SDS_P1;SDS_P2;PMS_P1;PMS_P2;Temp;Humidity;BMP_temperature;BMP_pressure;BME280_temperature;BME280_humidity;BME280_pressure;Samples;Min_cycle;Max_cycle;Signal;HPM_P1;HPM_P2
2024/01/04 00:00:25;;;;;;;;;;;;;;;7.06;100.00;97943.30;109804;1285;22389;-80
2024/01/04 00:02:52;;;;;;;;;;;;;;;7.05;100.00;97940.71;109823;1282;22517;-81
2024/01/04 00:05:18;;;;;;;;;;;;;;;7.03;100.00;97941.80;109513;1291;22678;-81
2024/01/04 00:07:44;;;;;;;;;;;;;;;7.02;100.00;97943.41;109569;1291;22428;-85
2024/01/04 00:10:12;;;;;;;;;;;;;;;7.04;100.00;97947.02;109474;1291;22425;-86
2024/01/04 00:12:39;;;;;;;;;;;;;;;7.05;100.00;97945.05;109642;1281;22425;-84
2024/01/04 00:15:06;;;;;;;;;;;;;;;7.05;100.00;97950.51;110047;1281;22370;-86
2024/01/04 00:17:32;;;;;;;;;;;;;;;7.05;100.00;97950.33;109955;1271;22493;-87
2024/01/04 00:20:01;;;;;;;;;;;;;;;7.04;100.00;97950.52;109991;1281;22622;-80
2024/01/04 00:22:27;;;;;;;;;;;;;;;7.05;100.00;97949.81;109784;1282;22479;-87
2024/01/04 00:24:53;;;;;;;;;;;;;;;7.06;100.00;97952.39;109911;1282;22420;-82
2024/01/04 00:27:20;;;;;;;;;;;;;;;7.05;100.00;97951.56;109800;1282;22426;-81
2024/01/04 00:29:46;;;;;;;;;;;;;;;7.03;100.00;97951.43;109943;1280;22384;-81
2024/01/04 00:32:12;;;;;;;;;;;;;;;7.03;100.00;97952.50;109733;1286;23198;-81
2024/01/04 00:34:38;;;;;;;;;;;;;;;7.03;100.00;97953.70;109867;1283;22419;-81
2024/01/04 00:37:30;;;;;;;;;;;;;;;6.99;100.00;97954.02;109864;1285;22456;-82
2024/01/04 00:43:52;;;;;;;;;;;;;;;7.04;100.00;97958.39;110252;1278;23012;-83
2024/01/04 00:46:23;;;;;;;;;;;;;;;7.02;100.00;97961.09;109911;1278;22593;-82
2024/01/04 00:48:49;;;;;;;;;;;;;;;7.01;100.00;97959.54;109877;1284;23222;-82
2024/01/04 00:51:16;;;;;;;;;;;;;;;7.03;100.00;97962.63;109935;1280;22562;-84
2024/01/04 00:53:43;;;;;;;;;;;;;;;7.04;100.00;97961.36;110052;1279;22478;-79
2024/01/04 00:56:09;;;;;;;;;;;;;;;7.06;100.00;97963.23;110055;1274;22392;-80
2024/01/04 00:58:36;;;;;;;;;;;;;;;7.05;100.00;97961.52;110057;1279;22530;-87
2024/01/04 01:01:05;;;;;;;;;;;;;;;7.01;100.00;97966.54;110032;1275;22630;-82
2024/01/04 01:03:32;;;;;;;;;;;;;;;7.01;100.00;97968.30;110028;1281;22297;-80
2024/01/04 01:05:59;;;;;;;;;;;;;;;7.04;100.00;97964.70;110003;1281;22438;-80
2024/01/04 01:08:25;;;;;;;;;;;;;;;7.05;100.00;97963.44;110001;1281;23229;-82
2024/01/04 01:10:51;;;;;;;;;;;;;;;7.05;100.00;97961.70;110141;1275;22421;-80
2024/01/04 01:13:20;;;;;;;;;;;;;;;7.02;100.00;97962.67;110550;1276;23125;-80
2024/01/04 01:15:47;;;;;;;;;;;;;;;7.03;100.00;97961.04;110488;1274;22356;-81
2024/01/04 01:18:13;;;;;;;;;;;;;;;7.04;100.00;97961.21;110510;1275;22499;-80
2024/01/04 01:20:39;;;;;;;;;;;;;;;7.03;100.00;97963.85;110558;1275;22452;-83
2024/01/04 01:23:05;;;;;;;;;;;;;;;7.04;100.00;97961.04;110358;1275;22450;-81
2024/01/04 01:25:33;;;;;;;;;;;;;;;7.06;100.00;97959.73;110590;1273;22387;-80
2024/01/04 01:27:59;;;;;;;;;;;;;;;7.03;100.00;97954.23;110570;1275;22406;-80
2024/01/04 01:30:25;;;;;;;;;;;;;;;7.00;100.00;97964.82;110601;1273;22349;-79
2024/01/04 01:32:51;;;;;;;;;;;;;;;7.00;100.00;97966.23;110432;1275;22383;-81
2024/01/04 01:35:17;;;;;;;;;;;;;;;7.03;100.00;97967.54;110609;1274;22362;-81
2024/01/04 01:37:44;;;;;;;;;;;;;;;7.04;100.00;97969.42;110649;1274;23199;-82
2024/01/04 01:40:10;;;;;;;;;;;;;;;7.03;100.00;97971.39;110584;1273;23119;-81
2024/01/04 01:42:36;;;;;;;;;;;;;;;7.04;100.00;97973.80;110611;1274;22476;-81
2024/01/04 01:45:02;;;;;;;;;;;;;;;7.08;100.00;97969.30;110584;1273;23106;-82
2024/01/04 01:47:29;;;;;;;;;;;;;;;7.10;100.00;97970.11;110357;1275;23059;-82
2024/01/04 01:49:56;;;;;;;;;;;;;;;7.15;100.00;97970.64;110008;1280;22463;-82
2024/01/04 01:52:23;;;;;;;;;;;;;;;7.17;100.00;97971.79;110052;1281;22464;-82
2024/01/04 01:54:50;;;;;;;;;;;;;;;7.16;100.00;97966.90;109876;1285;22551;-83
2024/01/04 01:57:18;;;;;;;;;;;;;;;7.14;100.00;97967.33;109890;1285;22465;-83
2024/01/04 01:59:44;;;;;;;;;;;;;;;7.08;100.00;97968.77;109877;1285;22488;-82
2024/01/04 02:02:11;;;;;;;;;;;;;;;7.06;100.00;97968.66;109800;1285;23207;-82
2024/01/04 02:04:39;;;;;;;;;;;;;;;7.04;100.00;97968.52;109878;1285;22459;-82
2024/01/04 02:07:06;;;;;;;;;;;;;;;7.06;100.00;97972.16;109895;1282;22447;-81
2024/01/04 02:09:32;;;;;;;;;;;;;;;7.10;100.00;97970.63;109988;1282;22418;-82
2024/01/04 02:12:05;;;;;;;;;;;;;;;7.14;100.00;97967.02;110044;1275;23177;-82
2024/01/04 02:14:32;;;;;;;;;;;;;;;7.15;100.00;97968.88;110472;1275;22501;-83
2024/01/04 02:16:58;;;;;;;;;;;;;;;7.17;100.00;97964.42;110571;1274;23028;-82
2024/01/04 02:19:26;;;;;;;;;;;;;;;7.18;100.00;97968.05;110568;1275;22388;-80
2024/01/04 02:21:53;;;;;;;;;;;;;;;7.18;100.00;97966.14;110310;1275;22443;-83
2024/01/04 02:24:19;;;;;;;;;;;;;;;7.14;100.00;97969.27;110364;1275;22454;-83
2024/01/04 02:26:45;;;;;;;;;;;;;;;7.11;100.00;97963.92;110602;1271;23122;-82
2024/01/04 02:29:11;;;;;;;;;;;;;;;7.11;100.00;97962.54;110345;1275;22389;-83
2024/01/04 02:31:37;;;;;;;;;;;;;;;7.13;100.00;97962.64;110352;1275;22427;-81
2024/01/04 02:34:03;;;;;;;;;;;;;;;7.16;100.00;97956.44;110554;1275;23092;-83
2024/01/04 02:36:31;;;;;;;;;;;;;;;7.16;100.00;97958.89;110564;1273;22288;-81
2024/01/04 02:38:58;;;;;;;;;;;;;;;7.12;100.00;97955.67;110305;1275;22348;-81
2024/01/04 02:41:25;;;;;;;;;;;;;;;7.10;100.00;97957.33;110576;1268;22370;-79
2024/01/04 02:43:51;;;;;;;;;;;;;;;7.12;100.00;97954.98;110538;1275;23116;-81
2024/01/04 02:46:17;;;;;;;;;;;;;;;7.12;100.00;97957.80;110521;1270;22328;-82
2024/01/04 02:48:44;;;;;;;;;;;;;;;7.13;100.00;97954.06;110582;1275;22376;-81
2024/01/04 02:51:10;;;;;;;;;;;;;;;7.10;100.00;97951.02;110525;1274;22327;-80
2024/01/04 02:53:36;;;;;;;;;;;;;;;7.06;100.00;97950.98;110200;1278;22421;-82
2024/01/04 02:56:04;;;;;;;;;;;;;;;7.05;100.00;97949.61;110141;1279;22433;-83
2024/01/04 02:58:30;;;;;;;;;;;;;;;7.05;100.00;97948.73;110129;1278;22397;-82
2024/01/04 03:00:57;;;;;;;;;;;;;;;7.06;100.00;97950.44;110244;1276;22363;-82
2024/01/04 03:03:23;;;;;;;;;;;;;;;7.09;100.00;97944.08;110181;1278;22595;-83
2024/01/04 03:05:49;;;;;;;;;;;;;;;7.10;100.00;97947.70;110233;1276;23099;-83
2024/01/04 03:08:15;;;;;;;;;;;;;;;7.07;100.00;97940.98;110282;1278;22430;-82
2024/01/04 03:10:41;;;;;;;;;;;;;;;7.02;100.00;97939.21;110108;1275;22407;-83
2024/01/04 03:13:07;;;;;;;;;;;;;;;7.01;100.00;97942.59;110386;1275;22300;-83
2024/01/04 03:19:23;;;;;;;;;;;;;;;6.95;100.00;97938.91;110368;1275;348740;-84
2024/01/04 03:21:50;;;;;;;;;;;;;;;6.96;100.00;97934.35;110662;1271;22974;-82
2024/01/04 03:24:16;;;;;;;;;;;;;;;6.93;100.00;97939.70;110421;1275;22352;-82
2024/01/04 03:26:43;;;;;;;;;;;;;;;6.93;100.00;97939.52;110580;1275;22287;-83
2024/01/04 03:29:09;;;;;;;;;;;;;;;6.89;100.00;97938.59;110521;1272;22356;-79
2024/01/04 03:31:35;;;;;;;;;;;;;;;6.85;100.00;97939.44;110504;1275;23124;-78
2024/01/04 03:34:01;;;;;;;;;;;;;;;6.88;100.00;97935.85;110518;1274;22443;-78
2024/01/04 03:36:28;;;;;;;;;;;;;;;6.89;100.00;97935.63;110542;1265;22363;-78
2024/01/04 03:38:55;;;;;;;;;;;;;;;6.92;100.00;97936.56;110572;1275;23089;-79
2024/01/04 03:41:21;;;;;;;;;;;;;;;6.93;100.00;97931.98;110514;1275;22452;-80
2024/01/04 03:43:48;;;;;;;;;;;;;;;6.91;100.00;97934.34;110542;1272;22497;-82
2024/01/04 03:46:15;;;;;;;;;;;;;;;6.92;100.00;97934.29;110539;1275;23138;-83
2024/01/04 03:48:43;;;;;;;;;;;;;;;6.90;100.00;97934.20;110593;1273;23296;-82
2024/01/04 03:51:10;;;;;;;;;;;;;;;6.86;100.00;97935.54;110607;1274;22354;-82
2024/01/04 03:53:36;;;;;;;;;;;;;;;6.86;100.00;97936.77;110592;1272;22385;-82
2024/01/04 03:56:04;;;;;;;;;;;;;;;6.88;100.00;97935.13;110465;1274;22396;-81
2024/01/04 03:58:32;;;;;;;;;;;;;;;6.87;100.00;97931.50;110573;1274;22363;-81
2024/01/04 04:00:58;;;;;;;;;;;;;;;6.88;100.00;97931.10;110548;1269;22390;-81
2024/01/04 04:03:24;;;;;;;;;;;;;;;6.90;100.00;97928.79;110532;1274;23036;-82
2024/01/04 04:05:50;;;;;;;;;;;;;;;6.88;100.00;97930.39;110559;1273;22384;-81
2024/01/04 04:08:16;;;;;;;;;;;;;;;6.87;100.00;97928.70;110556;1274;22418;-82
2024/01/04 04:10:44;;;;;;;;;;;;;;;6.86;100.00;97926.46;110565;1273;22347;-80
2024/01/04 04:13:10;;;;;;;;;;;;;;;6.84;100.00;97929.32;110559;1274;22473;-80
2024/01/04 04:15:36;;;;;;;;;;;;;;;6.85;100.00;97926.30;110377;1272;22387;-80
2024/01/04 04:18:02;;;;;;;;;;;;;;;6.87;100.00;97921.01;110009;1279;22415;-80
2024/01/04 04:20:29;;;;;;;;;;;;;;;6.90;100.00;97923.35;110046;1278;23087;-82
2024/01/04 04:22:58;;;;;;;;;;;;;;;6.95;100.00;97926.16;110061;1279;22405;-81
2024/01/04 04:25:25;;;;;;;;;;;;;;;6.98;100.00;97921.50;110008;1281;22445;-81
2024/01/04 04:27:51;;;;;;;;;;;;;;;6.98;100.00;97923.77;109910;1274;23366;-81
2024/01/04 04:30:19;;;;;;;;;;;;;;;6.99;99.99;97925.16;109926;1281;22402;-82
2024/01/04 04:32:46;;;;;;;;;;;;;;;7.00;99.88;97924.94;110139;1275;22505;-81
2024/01/04 04:35:12;;;;;;;;;;;;;;;7.01;99.95;97924.20;110139;1275;22470;-81
2024/01/04 04:37:38;;;;;;;;;;;;;;;7.04;99.94;97920.42;110048;1277;23218;-83
2024/01/04 04:40:04;;;;;;;;;;;;;;;7.04;99.58;97922.35;109996;1279;22434;-82
2024/01/04 04:42:31;;;;;;;;;;;;;;;7.02;99.58;97924.35;110034;1279;23085;-82
2024/01/04 04:44:57;;;;;;;;;;;;;;;7.01;99.68;97928.59;110039;1277;22397;-83
2024/01/04 04:47:23;;;;;;;;;;;;;;;7.03;99.82;97928.52;110058;1280;22503;-80
2024/01/04 04:49:50;;;;;;;;;;;;;;;7.03;99.55;97925.88;110150;1276;23110;-82
2024/01/04 04:52:17;;;;;;;;;;;;;;;7.02;99.47;97930.64;110025;1280;22426;-82
2024/01/04 04:54:43;;;;;;;;;;;;;;;6.97;99.32;97928.03;110061;1275;23264;-81
2024/01/04 04:57:10;;;;;;;;;;;;;;;6.92;99.40;97929.56;110513;1271;23222;-82
2024/01/04 04:59:36;;;;;;;;;;;;;;;6.90;99.43;97931.39;110526;1274;22323;-82
2024/01/04 05:02:02;;;;;;;;;;;;;;;6.89;99.34;97926.89;110233;1274;22382;-83
2024/01/04 05:04:28;;;;;;;;;;;;;;;6.87;99.41;97934.66;110255;1274;22399;-83
2024/01/04 05:06:54;;;;;;;;;;;;;;;6.88;99.55;97929.36;110551;1274;22417;-82
2024/01/04 05:09:21;;;;;;;;;;;;;;;6.86;99.48;97929.25;110540;1274;22471;-83
2024/01/04 05:11:47;;;;;;;;;;;;;;;6.88;99.49;97934.10;110382;1274;22553;-83
2024/01/04 05:14:13;;;;;;;;;;;;;;;6.88;99.27;97928.83;110573;1275;22357;-84
2024/01/04 05:16:39;;;;;;;;;;;;;;;6.87;99.12;97935.87;110418;1274;22371;-82
2024/01/04 05:19:13;;;;;;;;;;;;;;;6.87;99.30;97935.87;110556;1274;22877;-83
2024/01/04 05:21:40;;;;;;;;;;;;;;;6.87;99.30;97931.14;110577;1272;22358;-81
2024/01/04 05:24:06;;;;;;;;;;;;;;;6.87;99.09;97928.53;110541;1274;22377;-83
2024/01/04 05:26:32;;;;;;;;;;;;;;;6.87;99.26;97928.71;110377;1274;22381;-82
2024/01/04 05:28:59;;;;;;;;;;;;;;;6.90;99.38;97929.63;110541;1274;23176;-83
2024/01/04 05:31:25;;;;;;;;;;;;;;;6.95;99.23;97931.92;110359;1267;23147;-83
2024/01/04 05:33:52;;;;;;;;;;;;;;;6.96;99.18;97935.21;110385;1274;23163;-81
2024/01/04 05:36:18;;;;;;;;;;;;;;;6.98;99.09;97938.30;110365;1273;22373;-81
2024/01/04 05:38:44;;;;;;;;;;;;;;;7.00;99.22;97943.67;110363;1274;22370;-82
2024/01/04 05:41:11;;;;;;;;;;;;;;;7.02;98.98;97942.37;110537;1272;23039;-82
2024/01/04 05:43:37;;;;;;;;;;;;;;;7.02;98.79;97946.40;110556;1274;23255;-81
2024/01/04 05:46:04;;;;;;;;;;;;;;;7.00;98.58;97947.87;110576;1272;22401;-81
2024/01/04 05:48:30;;;;;;;;;;;;;;;6.98;98.46;97949.49;110158;1278;22430;-80
2024/01/04 05:50:57;;;;;;;;;;;;;;;6.94;98.59;97948.93;110267;1278;22421;-81
2024/01/04 05:53:23;;;;;;;;;;;;;;;6.92;98.70;97948.98;110147;1278;22414;-81
2024/01/04 05:55:49;;;;;;;;;;;;;;;6.92;98.63;97951.11;110335;1273;22437;-81
2024/01/04 05:58:16;;;;;;;;;;;;;;;6.91;98.86;97954.09;110234;1278;22372;-81
2024/01/04 06:00:42;;;;;;;;;;;;;;;6.91;98.78;97955.30;110282;1271;22431;-83
2024/01/04 06:03:08;;;;;;;;;;;;;;;6.94;98.99;97955.04;110157;1279;22478;-82
2024/01/04 06:05:35;;;;;;;;;;;;;;;6.99;99.08;97961.20;110170;1275;22487;-82
2024/01/04 06:08:01;;;;;;;;;;;;;;;7.00;98.88;97961.70;110377;1274;22381;-81
2024/01/04 06:10:30;;;;;;;;;;;;;;;7.02;98.87;97963.38;110284;1274;22413;-81
2024/01/04 06:12:56;;;;;;;;;;;;;;;7.01;98.45;97963.76;110626;1273;22432;-82
2024/01/04 06:15:23;;;;;;;;;;;;;;;7.01;98.38;97967.97;110672;1270;22380;-82
2024/01/04 06:17:49;;;;;;;;;;;;;;;7.00;98.50;97970.43;110633;1273;22377;-82
2024/01/04 06:20:16;;;;;;;;;;;;;;;7.00;98.41;97971.13;110084;1278;22421;-82
2024/01/04 06:22:43;;;;;;;;;;;;;;;7.00;98.62;97972.00;110158;1276;22414;-83
2024/01/04 06:25:10;;;;;;;;;;;;;;;7.03;98.61;97973.11;110194;1271;22448;-81
2024/01/04 06:27:36;;;;;;;;;;;;;;;7.03;98.24;97970.50;110070;1279;22503;-81
2024/01/04 06:30:02;;;;;;;;;;;;;;;7.03;98.38;97969.45;110076;1279;22397;-80
2024/01/04 06:32:32;;;;;;;;;;;;;;;7.05;98.52;97965.89;110078;1279;22438;-81
2024/01/04 06:34:58;;;;;;;;;;;;;;;7.04;98.12;97968.36;110079;1279;22427;-83
2024/01/04 06:37:25;;;;;;;;;;;;;;;7.04;98.31;97966.27;110102;1275;22502;-81
2024/01/04 06:39:52;;;;;;;;;;;;;;;7.03;98.01;97967.36;110626;1274;22321;-81
2024/01/04 06:42:19;;;;;;;;;;;;;;;7.02;98.05;97965.29;110579;1275;22461;-82
2024/01/04 06:44:47;;;;;;;;;;;;;;;7.01;98.17;97967.23;110397;1274;22348;-81
2024/01/04 06:47:14;;;;;;;;;;;;;;;7.01;98.22;97958.85;110587;1274;23135;-84
2024/01/04 06:49:41;;;;;;;;;;;;;;;7.00;98.18;97963.77;110560;1270;22340;-83
2024/01/04 06:52:08;;;;;;;;;;;;;;;6.98;97.99;97965.92;110414;1274;23015;-83
2024/01/04 06:54:34;;;;;;;;;;;;;;;6.95;97.91;97965.71;110185;1279;23089;-83
2024/01/04 06:57:00;;;;;;;;;;;;;;;6.93;98.16;97961.21;110142;1279;22402;-83
2024/01/04 06:59:27;;;;;;;;;;;;;;;6.90;98.05;97964.98;110091;1278;23148;-82
2024/01/04 07:01:53;;;;;;;;;;;;;;;6.87;98.22;97963.68;110066;1279;22583;-83
2024/01/04 07:04:19;;;;;;;;;;;;;;;6.87;98.55;97963.15;110239;1279;22380;-81
2024/01/04 07:06:45;;;;;;;;;;;;;;;6.91;98.52;97961.09;110214;1276;22496;-84
2024/01/04 07:09:12;;;;;;;;;;;;;;;6.90;98.21;97962.52;110184;1272;23128;-83
2024/01/04 07:11:38;;;;;;;;;;;;;;;6.89;98.33;97961.70;110063;1273;22438;-80
2024/01/04 07:14:04;;;;;;;;;;;;;;;6.89;98.35;97961.00;110179;1273;22447;-80
2024/01/04 07:16:30;;;;;;;;;;;;;;;6.89;98.51;97963.45;110114;1279;22466;-81
2024/01/04 07:18:57;;;;;;;;;;;;;;;6.90;98.48;97962.70;110462;1267;22504;-82
2024/01/04 07:21:23;;;;;;;;;;;;;;;6.93;98.44;97957.38;110473;1274;22394;-80
2024/01/04 07:23:50;;;;;;;;;;;;;;;6.93;98.37;97958.23;110548;1274;22530;-79
2024/01/04 07:26:16;;;;;;;;;;;;;;;6.93;98.57;97956.30;110534;1270;23183;-81
2024/01/04 07:28:43;;;;;;;;;;;;;;;6.96;98.80;97959.36;110542;1274;22417;-79
2024/01/04 07:31:09;;;;;;;;;;;;;;;7.00;98.65;97959.92;110540;1269;22376;-79
2024/01/04 07:33:35;;;;;;;;;;;;;;;7.02;98.30;97960.92;110376;1274;22364;-83
2024/01/04 07:36:02;;;;;;;;;;;;;;;6.99;98.15;97961.72;110576;1270;22420;-83
2024/01/04 07:38:34;;;;;;;;;;;;;;;6.97;98.32;97962.46;110551;1274;22392;-82
2024/01/04 07:41:00;;;;;;;;;;;;;;;6.95;98.16;97956.41;110608;1274;23209;-84
2024/01/04 07:43:27;;;;;;;;;;;;;;;6.89;98.14;97959.58;110576;1267;23045;-82
2024/01/04 07:45:53;;;;;;;;;;;;;;;6.90;98.48;97957.13;110444;1275;22503;-83
2024/01/04 07:48:21;;;;;;;;;;;;;;;6.90;98.47;97954.13;110438;1267;22492;-85
2024/01/04 07:50:47;;;;;;;;;;;;;;;6.89;98.57;97957.15;110529;1274;22396;-84
2024/01/04 07:53:14;;;;;;;;;;;;;;;6.92;98.87;97960.38;110429;1274;22411;-83
2024/01/04 07:55:40;;;;;;;;;;;;;;;6.92;98.78;97962.63;110391;1267;22429;-83
2024/01/04 07:58:07;;;;;;;;;;;;;;;6.93;98.66;97962.26;110486;1274;22403;-83
2024/01/04 08:00:34;;;;;;;;;;;;;;;6.94;98.77;97962.92;110387;1274;22356;-82
2024/01/04 08:03:00;;;;;;;;;;;;;;;6.97;98.86;97962.47;110481;1274;22423;-76
2024/01/04 08:05:26;;;;;;;;;;;;;;;6.97;98.79;97962.13;110528;1267;22476;-80
2024/01/04 08:07:52;;;;;;;;;;;;;;;6.96;98.96;97962.86;110479;1273;22427;-82
2024/01/04 08:10:18;;;;;;;;;;;;;;;6.97;98.92;97961.43;110374;1270;23123;-82
2024/01/04 08:12:45;;;;;;;;;;;;;;;6.91;98.89;97956.89;110482;1270;23286;-82
2024/01/04 08:15:11;;;;;;;;;;;;;;;6.94;99.33;97955.41;110493;1273;22414;-82
2024/01/04 08:17:38;;;;;;;;;;;;;;;7.00;99.51;97958.36;110536;1267;23182;-80
2024/01/04 08:20:05;;;;;;;;;;;;;;;7.04;99.31;97955.96;110524;1267;23163;-83
2024/01/04 08:22:31;;;;;;;;;;;;;;;7.04;99.04;97957.88;110687;1267;22450;-81
2024/01/04 08:24:57;;;;;;;;;;;;;;;7.02;99.16;97963.54;110576;1269;22388;-83
2024/01/04 08:27:24;;;;;;;;;;;;;;;7.03;99.26;97968.91;110403;1275;23153;-83
2024/01/04 08:29:50;;;;;;;;;;;;;;;7.06;99.29;97964.28;110470;1274;22195;-84
2024/01/04 08:32:17;;;;;;;;;;;;;;;7.10;99.49;97970.61;110453;1275;22381;-82
2024/01/04 08:34:55;;;;;;;;;;;;;;;7.12;99.23;97967.59;110432;1275;22305;-84
2024/01/04 08:37:22;;;;;;;;;;;;;;;7.12;99.24;97968.98;110657;1274;22359;-82
2024/01/04 08:39:49;;;;;;;;;;;;;;;7.13;99.22;97972.98;110652;1275;22298;-82
2024/01/04 08:49:50;;;;;;;;;;;;;;;7.16;99.25;97964.98;110542;1274;22339;-84
2024/01/04 08:52:17;;;;;;;;;;;;;;;7.16;99.15;97971.98;110515;1275;22359;-85
2024/01/04 08:54:43;;;;;;;;;;;;;;;7.19;99.43;97972.77;110434;1275;22335;-83
2024/01/04 08:57:11;;;;;;;;;;;;;;;7.25;99.45;97973.80;110526;1274;23089;-83
2024/01/04 09:07:24;;;;;;;;;;;;;;;7.35;99.24;97982.21;110522;1274;22326;-84
2024/01/04 09:09:53;;;;;;;;;;;;;;;7.40;99.00;97977.46;110424;1275;22934;-82
2024/01/04 09:12:20;;;;;;;;;;;;;;;7.39;98.73;97982.08;110280;1274;23174;-87
2024/01/04 09:14:47;;;;;;;;;;;;;;;7.40;98.96;97977.83;110038;1281;22405;-84
2024/01/04 09:17:13;;;;;;;;;;;;;;;7.36;98.52;97979.55;110040;1280;22426;-80
2024/01/04 09:19:41;;;;;;;;;;;;;;;7.30;98.66;97982.70;110023;1281;22397;-82
2024/01/04 09:22:07;;;;;;;;;;;;;;;7.30;99.09;97980.29;109996;1281;22443;-81
2024/01/04 09:24:34;;;;;;;;;;;;;;;7.29;98.97;97982.40;109967;1281;22294;-80
2024/01/04 09:27:02;;;;;;;;;;;;;;;7.29;99.24;97979.63;109951;1281;22420;-81
2024/01/04 09:29:29;;;;;;;;;;;;;;;7.28;99.10;97983.51;109999;1281;23182;-81
2024/01/04 09:31:56;;;;;;;;;;;;;;;7.25;99.19;97982.90;109945;1279;22489;-81
2024/01/04 09:34:24;;;;;;;;;;;;;;;7.25;99.40;97978.71;110098;1269;22425;-81
2024/01/04 09:36:50;;;;;;;;;;;;;;;7.23;99.25;97985.25;109895;1278;23157;-81
2024/01/04 09:39:17;;;;;;;;;;;;;;;7.23;99.51;97982.96;109907;1284;22446;-81
2024/01/04 09:41:47;;;;;;;;;;;;;;;7.27;99.63;97980.39;109400;1290;22516;-81
2024/01/04 09:44:14;;;;;;;;;;;;;;;7.25;99.55;97977.30;109454;1290;23285;-82
2024/01/04 09:46:41;;;;;;;;;;;;;;;7.25;99.79;97976.06;109482;1276;22764;-81
2024/01/04 09:49:09;;;;;;;;;;;;;;;7.21;99.82;97972.54;109592;1283;23105;-81
2024/01/04 09:51:38;;;;;;;;;;;;;;;7.21;100.00;97974.28;109841;1284;23385;-81
2024/01/04 09:54:08;;;;;;;;;;;;;;;7.23;100.00;97976.85;109828;1280;22452;-80
2024/01/04 09:56:39;;;;;;;;;;;;;;;7.23;99.94;97976.49;109792;1282;22435;-81
2024/01/04 09:59:09;;;;;;;;;;;;;;;7.23;100.00;97982.29;109924;1278;23249;-83
2024/01/04 10:01:37;;;;;;;;;;;;;;;7.26;100.00;97980.23;110110;1278;22494;-81
2024/01/04 10:04:11;;;;;;;;;;;;;;;7.26;100.00;97983.55;110160;1278;22472;-81
2024/01/04 10:06:40;;;;;;;;;;;;;;;7.25;99.96;97983.94;110157;1278;22314;-81
2024/01/04 10:09:19;;;;;;;;;;;;;;;7.25;100.00;97983.77;110101;1278;22488;-81
2024/01/04 10:11:57;;;;;;;;;;;;;;;7.23;100.00;97981.23;110149;1278;23248;-81
2024/01/04 10:14:24;;;;;;;;;;;;;;;7.23;100.00;97979.27;110401;1272;23325;-83
2024/01/04 10:16:51;;;;;;;;;;;;;;;7.30;100.00;97986.23;110380;1275;23193;-81
2024/01/04 10:19:18;;;;;;;;;;;;;;;7.34;100.00;97980.52;110364;1271;22391;-82
2024/01/04 10:21:45;;;;;;;;;;;;;;;7.35;100.00;97979.23;110478;1274;23045;-81
2024/01/04 10:24:16;;;;;;;;;;;;;;;7.36;100.00;97978.69;110391;1271;22304;-83
2024/01/04 10:26:43;;;;;;;;;;;;;;;7.34;100.00;97984.35;110506;1267;23095;-82
2024/01/04 10:29:09;;;;;;;;;;;;;;;7.33;100.00;97989.48;110493;1274;22189;-83
2024/01/04 10:55:22;;;;;;;;;;;;;;;7.54;99.44;97984.02;110579;1274;22205;-82
2024/01/04 10:58:13;;;;;;;;;;;;;;;7.53;99.49;97983.00;110391;1271;22271;-83
2024/01/04 11:00:40;;;;;;;;;;;;;;;7.56;99.59;97974.31;110514;1274;22341;-82
2024/01/04 11:03:09;;;;;;;;;;;;;;;7.57;99.28;97976.91;110459;1270;22350;-84
2024/01/04 11:05:37;;;;;;;;;;;;;;;7.56;98.99;97980.78;110299;1275;22375;-84
2024/01/04 11:08:09;;;;;;;;;;;;;;;7.51;98.89;97980.60;110544;1271;22184;-82
2024/01/04 11:30:05;;;;;;;;;;;;;;;7.57;98.85;97975.84;110507;1274;22128;-82
2024/01/04 11:36:05;;;;;;;;;;;;;;;7.62;98.90;97972.00;110423;1275;22369;-81
2024/01/04 11:38:35;;;;;;;;;;;;;;;7.68;99.05;97973.16;110563;1271;22345;-83
2024/01/04 11:41:01;;;;;;;;;;;;;;;7.71;98.67;97973.25;110461;1274;22158;-81
2024/01/04 11:43:34;;;;;;;;;;;;;;;7.76;98.84;97971.31;110478;1275;22329;-83
2024/01/04 11:46:21;;;;;;;;;;;;;;;7.79;98.13;97967.86;110515;1273;22189;-83
2024/01/04 11:49:10;;;;;;;;;;;;;;;7.83;97.98;97964.08;110546;1274;22476;-81
2024/01/04 12:07:28;;;;;;;;;;;;;;;7.94;97.56;97970.33;110538;1274;22211;-84
2024/01/04 12:09:56;;;;;;;;;;;;;;;7.89;96.66;97972.61;110549;1268;22323;-84
2024/01/04 12:12:22;;;;;;;;;;;;;;;7.82;96.89;97973.56;110448;1275;22180;-85
2024/01/04 12:14:48;;;;;;;;;;;;;;;7.81;97.14;97973.61;110475;1273;22830;-83
2024/01/04 12:21:08;;;;;;;;;;;;;;;7.79;97.09;97976.27;110560;1274;22125;-83
2024/01/04 12:24:43;;;;;;;;;;;;;;;7.74;96.88;97980.84;110136;1279;22372;-84
2024/01/04 12:27:10;;;;;;;;;;;;;;;7.72;97.34;97987.77;110121;1279;22289;-81
2024/01/04 12:29:37;;;;;;;;;;;;;;;7.73;97.29;97988.42;110187;1273;22901;-81
2024/01/04 12:32:05;;;;;;;;;;;;;;;7.73;97.29;97987.02;110159;1279;22433;-81
2024/01/04 12:34:33;;;;;;;;;;;;;;;7.70;97.14;97988.33;110138;1274;22463;-82
2024/01/04 12:37:04;;;;;;;;;;;;;;;7.63;97.13;97992.29;110270;1278;22360;-83
2024/01/04 12:39:31;;;;;;;;;;;;;;;7.59;97.40;97991.52;110104;1279;23125;-82
2024/01/04 12:41:59;;;;;;;;;;;;;;;7.59;97.59;97991.20;110296;1274;23319;-82
2024/01/04 12:44:26;;;;;;;;;;;;;;;7.60;97.88;97990.79;110456;1270;22328;-81
2024/01/04 12:47:02;;;;;;;;;;;;;;;7.65;97.82;97990.44;110463;1273;23065;-82
2024/01/04 12:49:29;;;;;;;;;;;;;;;7.67;97.64;97988.80;110283;1275;22488;-82
2024/01/04 12:51:55;;;;;;;;;;;;;;;7.66;97.22;97985.86;110531;1274;22385;-82
2024/01/04 12:54:22;;;;;;;;;;;;;;;7.64;97.43;97991.02;110473;1275;22374;-84
2024/01/04 12:56:54;;;;;;;;;;;;;;;7.65;97.47;97985.36;110343;1270;22199;-84
2024/01/04 14:23:47;;;;;;;;;;;;;;;7.02;97.78;98043.16;110577;1274;22138;-83
2024/01/04 14:26:13;;;;;;;;;;;;;;;7.08;97.67;98051.19;110401;1271;22325;-84
2024/01/04 14:28:40;;;;;;;;;;;;;;;7.10;97.41;98048.16;110567;1269;22208;-83
2024/01/04 15:07:12;;;;;;;;;;;;;;;6.97;97.09;98059.80;110503;1274;22932;-85
2024/01/04 15:09:39;;;;;;;;;;;;;;;6.99;97.11;98062.34;110301;1259;22455;-83
2024/01/04 15:12:05;;;;;;;;;;;;;;;6.99;97.02;98059.54;110250;1275;23259;-82
2024/01/04 15:14:32;;;;;;;;;;;;;;;6.98;96.92;98062.03;110508;1271;22341;-83
2024/01/04 15:16:58;;;;;;;;;;;;;;;6.98;96.92;98062.73;110508;1275;22254;-83
2024/01/04 16:08:10;;;;;;;;;;;;;;;6.88;95.57;98083.33;110604;1274;22133;-84
2024/01/04 16:10:36;;;;;;;;;;;;;;;6.81;95.25;98089.65;110643;1273;22197;-85
2024/01/04 16:13:06;;;;;;;;;;;;;;;6.69;93.20;98083.04;110619;1265;22264;-84
2024/01/04 16:15:33;;;;;;;;;;;;;;;6.51;92.21;98090.73;110458;1275;22184;-83
2024/01/04 16:18:00;;;;;;;;;;;;;;;6.34;91.14;98105.20;110624;1275;22401;-85
2024/01/04 16:20:28;;;;;;;;;;;;;;;6.21;91.79;98099.79;110600;1263;22193;-85
2024/01/04 16:23:46;;;;;;;;;;;;;;;6.12;92.01;98101.79;110360;1271;23222;-84
2024/01/04 16:26:13;;;;;;;;;;;;;;;6.05;92.28;98105.82;110555;1275;22206;-83
2024/01/04 16:28:43;;;;;;;;;;;;;;;5.98;92.51;98113.51;110613;1273;22966;-84
2024/01/04 16:31:36;;;;;;;;;;;;;;;5.92;92.68;98116.96;110370;1275;22410;-85
2024/01/04 16:34:03;;;;;;;;;;;;;;;5.85;92.91;98117.16;110104;1280;22483;-84
2024/01/04 16:36:29;;;;;;;;;;;;;;;5.83;93.70;98121.58;110134;1279;22393;-84
2024/01/04 16:38:56;;;;;;;;;;;;;;;5.84;93.51;98126.44;109985;1280;22394;-85
2024/01/04 16:41:23;;;;;;;;;;;;;;;5.84;93.82;98122.42;110011;1283;22455;-84
2024/01/04 16:44:25;;;;;;;;;;;;;;;5.89;93.99;98125.63;110131;1283;22390;-84
2024/01/04 16:50:09;;;;;;;;;;;;;;;5.84;92.78;98137.45;110108;1283;22496;-83
2024/01/04 16:52:36;;;;;;;;;;;;;;;5.76;92.04;98139.92;110111;1280;22439;-84
2024/01/04 16:55:03;;;;;;;;;;;;;;;5.67;92.34;98141.02;110080;1280;22263;-84
2024/01/04 16:57:43;;;;;;;;;;;;;;;5.60;92.38;98149.40;110134;1277;22375;-85
2024/01/04 17:11:14;;;;;;;;;;;;;;;5.56;92.02;98171.33;110075;1281;22379;-84
2024/01/04 17:14:23;;;;;;;;;;;;;;;5.54;91.62;98172.76;110075;1277;23142;-84
2024/01/04 17:16:51;;;;;;;;;;;;;;;5.52;91.04;98178.05;110045;1281;22422;-85
2024/01/04 17:19:20;;;;;;;;;;;;;;;5.44;90.72;98177.35;110036;1280;22531;-84